createdAt,value
2018-02-01T00:00:05.736Z,1.80
2018-02-01T00:02:33.227Z,1.80
2018-02-01T00:05:00.733Z,1.80
2018-02-01T00:07:28.221Z,1.90
2018-02-01T00:09:55.718Z,1.80
2018-02-01T00:12:23.233Z,1.80
2018-02-01T00:14:50.763Z,1.90
2018-02-01T00:17:18.283Z,1.90
2018-02-01T00:19:45.782Z,1.90
2018-02-01T00:22:16.162Z,1.90
2018-02-01T00:24:43.668Z,2.00
2018-02-01T00:27:11.199Z,2.10
2018-02-01T00:29:39.468Z,2.10
2018-02-01T00:32:07.009Z,2.10
2018-02-01T00:34:34.519Z,2.20
2018-02-01T00:37:02.040Z,2.20
2018-02-01T00:39:29.534Z,2.20
2018-02-01T00:41:57.063Z,2.30
2018-02-01T00:44:25.335Z,2.30
2018-02-01T00:46:52.864Z,2.30
2018-02-01T00:49:20.362Z,2.30
2018-02-01T00:51:48.656Z,2.40
2018-02-01T00:54:16.150Z,2.40
2018-02-01T00:56:43.673Z,2.50
2018-02-01T00:59:11.178Z,2.50
2018-02-01T01:01:38.707Z,2.50
2018-02-01T01:04:06.202Z,2.60
2018-02-01T01:06:33.702Z,2.70
2018-02-01T01:09:01.222Z,2.70
2018-02-01T01:11:28.731Z,2.70
2018-02-01T01:13:56.260Z,2.70
2018-02-01T01:16:24.531Z,2.70
2018-02-01T01:18:52.042Z,2.70
2018-02-01T01:21:19.542Z,2.70
2018-02-01T01:23:47.840Z,2.70
2018-02-01T01:26:16.115Z,2.70
2018-02-01T01:28:44.405Z,2.70
2018-02-01T01:31:11.912Z,2.60
2018-02-01T01:33:39.429Z,2.60
2018-02-01T01:36:06.926Z,2.50
2018-02-01T01:38:34.450Z,2.50
2018-02-01T01:41:01.961Z,2.50
2018-02-01T01:43:30.255Z,2.50
2018-02-01T01:46:10.381Z,2.60
2018-02-01T01:48:37.899Z,2.50
2018-02-01T01:51:05.404Z,2.50
2018-02-01T01:53:32.893Z,2.40
2018-02-01T01:56:00.420Z,2.40
2018-02-01T01:58:27.934Z,2.30
2018-02-01T02:00:55.468Z,2.30
2018-02-01T02:03:22.970Z,2.30
2018-02-01T02:05:51.269Z,2.30
2018-02-01T02:08:18.761Z,2.30
2018-02-01T02:10:46.273Z,2.30
2018-02-01T02:13:13.765Z,2.40
2018-02-01T02:15:42.050Z,2.30
2018-02-01T02:18:09.555Z,2.30
2018-02-01T02:20:37.077Z,2.40
2018-02-01T02:23:04.569Z,2.40
2018-02-01T02:25:32.082Z,2.40
2018-02-01T02:27:59.614Z,2.40
2018-02-01T02:30:27.146Z,2.40
2018-02-01T02:32:54.646Z,2.40
2018-02-01T02:35:22.932Z,2.40
2018-02-01T02:37:50.437Z,2.30
2018-02-01T02:40:17.950Z,2.40
2018-02-01T02:42:45.453Z,2.40
2018-02-01T02:45:12.952Z,2.30
2018-02-01T02:47:41.232Z,2.40
2018-02-01T02:50:09.507Z,2.40
2018-02-01T02:52:37.786Z,2.40
2018-02-01T02:55:06.041Z,2.40
2018-02-01T02:57:33.552Z,2.40
2018-02-01T03:00:01.076Z,2.40
2018-02-01T03:02:29.354Z,2.10
2018-02-01T03:04:57.637Z,2.10
2018-02-01T03:07:25.908Z,2.00
2018-02-01T03:09:54.180Z,2.00
2018-02-01T03:12:22.455Z,2.10
2018-02-01T03:14:50.737Z,2.00
2018-02-01T03:17:19.008Z,1.90
2018-02-01T03:19:47.299Z,2.00
2018-02-01T03:22:14.801Z,2.00
2018-02-01T03:24:42.324Z,2.00
2018-02-01T03:27:09.837Z,2.00
2018-02-01T03:29:37.346Z,2.00
2018-02-01T03:32:04.852Z,2.00
2018-02-01T03:34:32.368Z,2.10
2018-02-01T03:36:59.854Z,2.10
2018-02-01T03:39:27.365Z,2.10
2018-02-01T03:41:54.869Z,2.00
2018-02-01T03:44:22.380Z,2.00
2018-02-01T03:46:49.904Z,2.00
2018-02-01T03:49:17.408Z,2.00
2018-02-01T03:51:44.916Z,2.00
2018-02-01T03:54:12.430Z,2.00
2018-02-01T03:56:39.961Z,2.00
2018-02-01T03:59:08.233Z,1.90
2018-02-01T04:01:36.481Z,2.00
2018-02-01T04:04:03.981Z,2.00
2018-02-01T04:06:31.479Z,2.00
2018-02-01T04:08:58.988Z,2.00
2018-02-01T04:11:27.261Z,2.00
2018-02-01T04:13:55.613Z,2.10
2018-02-01T04:16:23.102Z,2.00
2018-02-01T04:18:51.359Z,2.10
2018-02-01T04:21:19.655Z,2.10
2018-02-01T04:23:47.912Z,2.10
2018-02-01T04:26:15.440Z,2.00
2018-02-01T04:28:42.939Z,2.10
2018-02-01T04:31:11.241Z,2.10
2018-02-01T04:33:38.746Z,2.10
2018-02-01T04:36:06.269Z,2.10
2018-02-01T04:38:33.784Z,2.20
2018-02-01T04:41:02.055Z,2.20
2018-02-01T04:43:29.570Z,2.20
2018-02-01T04:45:57.062Z,2.20
2018-02-01T04:48:24.587Z,2.20
2018-02-01T04:50:52.086Z,2.20
2018-02-01T04:53:19.602Z,2.20
2018-02-01T04:55:47.100Z,2.10
2018-02-01T04:58:14.623Z,2.10
2018-02-01T05:00:42.122Z,2.10
2018-02-01T05:03:10.426Z,2.10
2018-02-01T05:05:37.924Z,2.10
2018-02-01T05:08:06.199Z,2.10
2018-02-01T05:10:33.705Z,2.10
2018-02-01T05:13:01.972Z,2.10
2018-02-01T05:15:30.241Z,2.10
2018-02-01T05:17:58.502Z,2.10
2018-02-01T05:20:26.051Z,2.00
2018-02-01T05:22:53.563Z,2.10
2018-02-01T05:25:21.080Z,2.10
2018-02-01T05:27:48.591Z,2.10
2018-02-01T05:30:16.089Z,2.10
2018-02-01T05:32:43.627Z,2.10
2018-02-01T05:35:11.136Z,2.00
2018-02-01T05:37:39.405Z,2.00
2018-02-01T05:40:07.661Z,1.90
2018-02-01T05:42:35.184Z,1.90
2018-02-01T05:45:02.678Z,2.00
2018-02-01T05:47:30.235Z,2.10
2018-02-01T05:49:57.734Z,2.00
2018-02-01T05:52:25.254Z,2.00
2018-02-01T05:54:52.749Z,2.00
2018-02-01T05:57:20.276Z,1.90
2018-02-01T05:59:47.784Z,2.00
2018-02-01T06:02:15.272Z,1.90
2018-02-01T06:04:42.802Z,2.00
2018-02-01T06:07:10.289Z,1.90
2018-02-01T06:09:37.809Z,1.90
2018-02-01T06:12:05.327Z,1.80
2018-02-01T06:14:32.860Z,1.80
2018-02-01T06:17:00.354Z,1.90
2018-02-01T06:19:28.617Z,1.80
2018-02-01T06:21:56.150Z,1.80
2018-02-01T06:24:23.646Z,1.90
2018-02-01T06:26:51.987Z,1.80
2018-02-01T06:29:19.471Z,1.80
2018-02-01T06:31:46.999Z,1.80
2018-02-01T06:34:14.490Z,1.80
2018-02-01T06:36:42.020Z,1.80
2018-02-01T06:39:09.524Z,1.80
2018-02-01T06:41:37.796Z,1.80
2018-02-01T06:44:06.092Z,1.80
2018-02-01T06:46:33.600Z,1.80
2018-02-01T06:49:01.110Z,1.70
2018-02-01T06:51:28.605Z,1.70
2018-02-01T06:53:56.124Z,1.60
2018-02-01T06:56:23.636Z,1.70
2018-02-01T06:58:51.151Z,1.70
2018-02-01T07:01:22.598Z,1.70
2018-02-01T07:03:50.124Z,1.70
2018-02-01T07:06:18.396Z,1.70
2018-02-01T07:08:46.676Z,1.80
2018-02-01T07:11:14.962Z,1.80
2018-02-01T07:13:43.231Z,1.80
2018-02-01T07:16:11.531Z,1.80
2018-02-01T07:18:39.044Z,1.80
2018-02-01T07:21:06.558Z,1.80
2018-02-01T07:23:34.048Z,1.80
2018-02-01T07:26:02.340Z,1.80
2018-02-01T07:28:29.855Z,1.80
2018-02-01T07:30:57.403Z,1.80
2018-02-01T07:33:24.919Z,1.80
2018-02-01T07:35:52.450Z,1.80
2018-02-01T07:38:19.979Z,1.90
2018-02-01T07:40:47.498Z,1.90
2018-02-01T07:43:15.025Z,1.90
2018-02-01T07:45:42.513Z,1.90
2018-02-01T07:48:10.036Z,1.90
2018-02-01T07:50:37.518Z,2.00
2018-02-01T07:53:05.002Z,2.10
2018-02-01T07:55:32.520Z,2.20
2018-02-01T07:58:00.006Z,2.20
2018-02-01T08:00:28.309Z,2.20
2018-02-01T08:02:55.808Z,2.20
2018-02-01T08:05:23.332Z,2.20
2018-02-01T08:07:50.839Z,2.30
2018-02-01T08:10:18.375Z,2.30
2018-02-01T08:12:45.861Z,2.40
2018-02-01T08:15:13.359Z,2.50
2018-02-01T08:17:40.880Z,2.60
2018-02-01T08:20:08.388Z,2.70
2018-02-01T08:22:35.913Z,2.70
2018-02-01T08:25:04.174Z,2.90
2018-02-01T08:27:31.720Z,2.90
2018-02-01T08:29:59.223Z,2.90
2018-02-01T08:32:26.713Z,3.00
2018-02-01T08:34:54.226Z,3.00
2018-02-01T08:37:22.490Z,3.00
2018-02-01T08:39:50.792Z,3.00
2018-02-01T08:42:18.304Z,3.00
2018-02-01T08:44:45.814Z,3.10
2018-02-01T08:47:13.302Z,3.10
2018-02-01T08:49:40.810Z,3.20
2018-02-01T08:52:09.070Z,3.30
2018-02-01T08:54:36.573Z,3.30
2018-02-01T08:57:04.076Z,3.30
2018-02-01T08:59:31.613Z,3.30
2018-02-01T09:01:59.120Z,3.30
2018-02-01T09:04:27.405Z,3.20
2018-02-01T09:06:54.917Z,3.20
2018-02-01T09:09:22.419Z,3.30
2018-02-01T09:11:50.689Z,3.50
2018-02-01T09:14:18.181Z,3.40
2018-02-01T09:16:45.693Z,3.40
2018-02-01T09:19:13.968Z,3.60
2018-02-01T09:21:42.238Z,3.60
2018-02-01T09:24:09.752Z,3.60
2018-02-01T09:26:37.261Z,3.60
2018-02-01T09:29:05.539Z,3.70
2018-02-01T09:31:33.822Z,3.70
2018-02-01T09:34:02.100Z,3.80
2018-02-01T09:36:30.361Z,3.80
2018-02-01T09:38:57.861Z,3.80
2018-02-01T09:41:25.360Z,3.80
2018-02-01T09:43:52.884Z,3.80
2018-02-01T09:46:20.388Z,4.00
2018-02-01T09:48:47.912Z,4.20
2018-02-01T09:51:15.406Z,4.40
2018-02-01T09:53:42.924Z,4.40
2018-02-01T09:56:10.427Z,4.30
2018-02-01T09:58:38.739Z,4.50
2018-02-01T10:01:06.234Z,4.40
2018-02-01T10:03:33.726Z,4.70
2018-02-01T10:06:02.003Z,4.70
2018-02-01T10:08:30.280Z,4.60
2018-02-01T10:10:58.573Z,4.70
2018-02-01T10:13:26.062Z,4.70
2018-02-01T10:15:53.569Z,4.70
2018-02-01T10:18:21.853Z,4.90
2018-02-01T10:20:50.152Z,5.00
2018-02-01T10:23:17.650Z,5.00
2018-02-01T10:25:45.184Z,4.90
2018-02-01T10:28:12.693Z,5.10
2018-02-01T10:30:40.951Z,5.20
2018-02-01T10:33:08.474Z,5.20
2018-02-01T10:35:35.961Z,5.40
2018-02-01T10:38:03.486Z,5.50
2018-02-01T10:40:30.982Z,5.00
2018-02-01T10:42:58.512Z,5.10
2018-02-01T10:45:26.002Z,5.40
2018-02-01T10:47:53.537Z,5.10
2018-02-01T10:50:21.051Z,5.10
2018-02-01T10:52:49.342Z,5.00
2018-02-01T10:55:16.847Z,4.90
2018-02-01T10:57:44.347Z,4.80
2018-02-01T11:00:11.887Z,4.90
2018-02-01T11:02:40.165Z,5.00
2018-02-01T11:05:08.445Z,5.00
2018-02-01T11:07:36.976Z,5.10
2018-02-01T11:10:04.478Z,5.10
2018-02-01T11:12:33.449Z,5.30
2018-02-01T11:15:00.962Z,5.30
2018-02-01T11:17:28.457Z,5.50
2018-02-01T11:19:55.992Z,5.70
2018-02-01T11:22:23.502Z,6.00
2018-02-01T11:24:51.808Z,6.30
2018-02-01T11:27:19.305Z,6.20
2018-02-01T11:29:46.816Z,5.80
2018-02-01T11:32:14.330Z,5.50
2018-02-01T11:34:41.839Z,5.30
2018-02-01T11:37:09.364Z,5.40
2018-02-01T11:39:36.879Z,5.20
2018-02-01T11:42:04.408Z,5.50
2018-02-01T11:44:31.910Z,5.70
2018-02-01T11:46:59.429Z,5.80
2018-02-01T11:49:26.938Z,5.70
2018-02-01T11:51:54.451Z,5.40
2018-02-01T11:54:21.956Z,5.40
2018-02-01T11:56:49.461Z,5.40
2018-02-01T11:59:17.006Z,5.20
2018-02-01T12:01:45.274Z,5.20
2018-02-01T12:04:13.548Z,5.10
2018-02-01T12:06:41.821Z,5.20
2018-02-01T12:09:09.367Z,5.20
2018-02-01T12:11:36.897Z,5.10
2018-02-01T12:14:04.416Z,5.10
2018-02-01T12:16:31.939Z,5.10
2018-02-01T12:18:59.457Z,5.00
2018-02-01T12:21:27.039Z,5.00
2018-02-01T12:23:54.541Z,5.00
2018-02-01T12:26:22.798Z,5.00
2018-02-01T12:28:50.321Z,5.00
2018-02-01T12:31:17.813Z,5.00
2018-02-01T12:33:45.338Z,5.00
2018-02-01T12:36:12.839Z,5.10
2018-02-01T12:38:40.361Z,5.10
2018-02-01T12:41:07.850Z,5.10
2018-02-01T12:43:35.343Z,5.10
2018-02-01T12:46:02.855Z,5.10
2018-02-01T12:48:30.341Z,5.10
2018-02-01T12:50:58.629Z,5.00
2018-02-01T12:53:26.904Z,5.00
2018-02-01T12:55:54.593Z,5.00
2018-02-01T12:58:22.089Z,5.10
2018-02-01T13:00:49.621Z,4.90
2018-02-01T13:03:17.150Z,5.00
2018-02-01T13:05:44.642Z,4.90
2018-02-01T13:08:12.168Z,4.90
2018-02-01T13:10:39.665Z,4.90
2018-02-01T13:13:07.228Z,5.00
2018-02-01T13:15:34.723Z,5.00
2018-02-01T13:18:03.004Z,5.00
2018-02-01T13:20:31.262Z,5.00
2018-02-01T13:22:58.765Z,5.00
2018-02-01T13:25:26.258Z,5.00
2018-02-01T13:27:53.792Z,5.00
2018-02-01T13:30:21.302Z,5.00
2018-02-01T13:32:49.585Z,5.10
2018-02-01T13:35:17.857Z,5.20
2018-02-01T13:37:46.129Z,5.20
2018-02-01T13:40:14.428Z,5.20
2018-02-01T13:42:42.695Z,5.20
2018-02-01T13:45:10.977Z,5.20
2018-02-01T13:47:39.233Z,5.20
2018-02-01T13:50:06.717Z,5.20
2018-02-01T13:52:34.234Z,5.30
2018-02-01T13:55:01.749Z,5.40
2018-02-01T13:57:29.277Z,5.50
2018-02-01T13:59:57.543Z,5.40
2018-02-01T14:02:25.065Z,5.40
2018-02-01T14:04:52.564Z,5.30
2018-02-01T14:07:20.860Z,5.10
2018-02-01T14:09:48.359Z,5.10
2018-02-01T14:12:15.888Z,5.10
2018-02-01T14:14:43.381Z,5.10
2018-02-01T14:17:10.895Z,5.10
2018-02-01T14:19:38.416Z,5.00
2018-02-01T14:22:06.808Z,5.00
2018-02-01T14:24:35.099Z,4.90
2018-02-01T14:27:03.382Z,4.80
2018-02-01T14:29:31.658Z,4.80
2018-02-01T14:31:59.162Z,4.80
2018-02-01T14:34:26.692Z,4.80
2018-02-01T14:36:54.177Z,4.80
2018-02-01T14:39:21.685Z,4.70
2018-02-01T14:41:49.973Z,4.60
2018-02-01T14:44:17.518Z,4.60
2018-02-01T14:46:45.019Z,4.60
2018-02-01T16:11:09.667Z,4.60
2018-02-01T16:13:37.182Z,4.40
2018-02-01T16:16:04.690Z,4.20
2018-02-01T16:18:32.208Z,4.10
2018-02-01T16:20:59.722Z,4.10
2018-02-01T16:23:27.201Z,4.00
2018-02-01T16:25:55.541Z,4.00
2018-02-01T16:28:23.028Z,4.00
2018-02-01T16:30:51.315Z,3.90
2018-02-01T16:33:18.836Z,3.90
2018-02-01T16:35:46.368Z,3.80
2018-02-01T16:38:13.866Z,3.80
2018-02-01T16:40:41.349Z,3.70
2018-02-01T16:43:09.619Z,3.60
2018-02-01T16:45:37.894Z,3.50
2018-02-01T16:48:06.162Z,3.50
2018-02-01T16:50:34.426Z,3.40
2018-02-01T16:53:01.924Z,3.50
2018-02-01T16:55:29.417Z,3.50
2018-02-01T16:57:56.934Z,3.50
2018-02-01T17:00:24.421Z,3.50
2018-02-01T17:02:51.948Z,3.40
2018-02-01T17:05:19.433Z,3.40
2018-02-01T17:07:46.941Z,3.40
2018-02-01T17:10:14.469Z,3.30
2018-02-01T17:12:41.977Z,3.20
2018-02-01T17:15:10.253Z,3.10
2018-02-01T17:17:38.498Z,3.00
2018-02-01T17:20:06.020Z,3.00
2018-02-01T17:22:33.547Z,3.00
2018-02-01T17:25:01.819Z,3.00
2018-02-01T17:27:30.101Z,2.90
2018-02-01T17:29:57.643Z,2.90
2018-02-01T17:32:25.958Z,2.80
2018-02-01T17:34:54.194Z,2.90
2018-02-01T17:37:22.479Z,2.80
2018-02-01T17:39:50.751Z,2.90
2018-02-01T17:42:19.044Z,2.80
2018-02-01T17:44:46.540Z,2.80
2018-02-01T17:47:14.050Z,2.70
2018-02-01T17:49:42.323Z,2.50
2018-02-01T17:52:10.613Z,2.50
2018-02-01T17:54:38.120Z,2.50
2018-02-01T17:57:05.652Z,2.40
2018-02-01T17:59:33.166Z,2.40
2018-02-01T18:02:01.428Z,2.40
2018-02-01T18:04:28.955Z,2.40
2018-02-01T18:06:56.458Z,2.40
2018-02-01T18:09:23.965Z,2.30
2018-02-01T18:11:51.480Z,2.30
2018-02-01T18:14:19.754Z,2.40
2018-02-01T18:16:48.028Z,2.40
2018-02-01T18:19:16.324Z,2.50
2018-02-01T18:21:43.826Z,2.50
2018-02-01T18:24:11.321Z,2.50
2018-02-01T18:26:39.605Z,2.50
2018-02-01T18:29:07.880Z,2.60
2018-02-01T18:31:36.180Z,2.60
2018-02-01T18:34:03.693Z,2.60
2018-02-01T18:36:31.214Z,2.60
2018-02-01T18:38:58.711Z,2.50
2018-02-01T18:41:26.214Z,2.50
2018-02-01T18:43:53.725Z,2.50
2018-02-01T18:46:21.257Z,2.50
2018-02-01T18:48:48.750Z,2.50
2018-02-01T18:51:16.264Z,2.60
2018-02-01T18:53:43.790Z,2.60
2018-02-01T18:56:11.319Z,2.60
2018-02-01T18:58:38.811Z,2.60
2018-02-01T19:01:06.320Z,2.60
2018-02-01T19:03:33.846Z,2.60
2018-02-01T19:06:01.341Z,2.60
2018-02-01T19:08:28.855Z,2.60
2018-02-01T19:10:56.354Z,2.60
2018-02-01T19:13:25.600Z,2.60
2018-02-01T19:15:53.093Z,2.60
2018-02-01T19:18:20.586Z,2.60
2018-02-01T19:20:48.106Z,2.60
2018-02-01T19:23:15.597Z,2.60
2018-02-01T19:25:43.105Z,2.60
2018-02-01T19:28:10.606Z,2.60
2018-02-01T19:30:38.109Z,2.60
2018-02-01T19:33:05.624Z,2.70
2018-02-01T19:35:33.156Z,2.70
2018-02-01T19:38:00.665Z,2.60
2018-02-01T19:40:28.965Z,2.70
2018-02-01T19:42:56.462Z,2.60
2018-02-01T19:45:23.957Z,2.70
2018-02-01T19:47:52.237Z,2.70
2018-02-01T19:50:20.516Z,2.80
2018-02-01T19:52:48.809Z,2.80
2018-02-01T19:55:16.327Z,2.80
2018-02-01T19:57:43.846Z,2.80
2018-02-01T20:00:11.356Z,2.80
2018-02-01T20:02:39.657Z,2.80
2018-02-01T20:05:07.153Z,2.80
2018-02-01T20:07:34.693Z,2.70
2018-02-01T20:10:02.204Z,2.70
2018-02-01T20:12:30.467Z,2.70
2018-02-01T20:14:57.975Z,2.70
2018-02-01T20:17:25.470Z,2.70
2018-02-01T20:19:52.985Z,2.70
2018-02-01T20:22:20.497Z,2.70
2018-02-01T20:24:48.030Z,2.60
2018-02-01T20:27:15.533Z,2.60
2018-02-01T20:29:43.818Z,2.50
2018-02-01T20:32:12.083Z,2.40
2018-02-01T20:34:40.364Z,2.40
2018-02-01T20:37:08.641Z,2.50
2018-02-01T20:39:36.907Z,2.40
2018-02-01T20:42:04.423Z,2.40
2018-02-01T20:44:31.917Z,2.40
2018-02-01T20:46:59.450Z,2.40
2018-02-01T20:49:26.956Z,2.40
2018-02-01T20:51:55.232Z,2.40
2018-02-01T20:54:23.507Z,2.30
2018-02-01T20:56:51.780Z,2.40
2018-02-01T20:59:20.077Z,2.40
2018-02-01T21:01:47.564Z,2.40
2018-02-01T21:04:15.083Z,2.30
2018-02-01T21:06:43.356Z,2.40
2018-02-01T21:09:10.882Z,2.40
2018-02-01T21:11:38.399Z,2.40
2018-02-01T21:14:05.932Z,2.40
2018-02-01T21:16:34.255Z,2.40
2018-02-01T21:19:01.748Z,2.40
2018-02-01T21:21:29.258Z,2.40
2018-02-01T21:23:56.816Z,2.40
2018-02-01T21:26:24.335Z,2.30
2018-02-01T21:28:52.608Z,2.20
2018-02-01T21:31:20.904Z,2.30
2018-02-01T21:33:48.413Z,2.30
2018-02-01T21:36:15.921Z,2.30
2018-02-01T21:41:34.139Z,2.30
2018-02-01T21:44:01.655Z,2.30
2018-02-01T21:46:29.149Z,2.30
2018-02-01T21:48:56.670Z,2.30
2018-02-01T21:51:24.171Z,2.30
2018-02-01T21:53:52.211Z,2.30
2018-02-01T21:59:16.480Z,2.30
2018-02-01T22:01:44.011Z,2.30
2018-02-01T22:04:11.525Z,2.30
2018-02-01T22:06:39.017Z,2.20
2018-02-01T22:09:06.562Z,2.20
2018-02-01T22:11:34.057Z,2.30
2018-02-01T22:14:02.319Z,2.20
2018-02-01T22:16:29.862Z,2.20
2018-02-01T22:18:58.150Z,2.10
2018-02-01T22:21:25.784Z,2.10
2018-02-01T22:23:53.282Z,2.10
2018-02-01T22:26:21.578Z,2.10
2018-02-01T22:28:49.098Z,2.00
2018-02-01T22:31:16.614Z,2.10
2018-02-01T22:33:44.175Z,2.10
2018-02-01T22:36:11.683Z,2.00
2018-02-01T22:38:39.198Z,2.00
2018-02-01T22:41:06.709Z,2.10
2018-02-01T22:43:35.004Z,2.00
2018-02-01T22:46:02.526Z,2.00
2018-02-01T22:48:30.050Z,2.00
2018-02-01T22:50:57.559Z,2.00
2018-02-01T22:53:25.077Z,2.10
2018-02-01T22:55:52.604Z,2.10
2018-02-01T22:58:20.120Z,2.20
2018-02-01T23:00:47.685Z,2.10
2018-02-01T23:03:15.205Z,2.10
2018-02-01T23:05:42.738Z,2.10
2018-02-01T23:08:10.239Z,2.20
2018-02-01T23:10:37.739Z,2.10
2018-02-01T23:13:06.029Z,2.00
2018-02-01T23:15:33.526Z,2.10
2018-02-01T23:18:01.052Z,2.10
2018-02-01T23:20:28.549Z,2.20
2018-02-01T23:22:56.066Z,2.20
2018-02-01T23:25:23.588Z,2.30
2018-02-01T23:27:51.158Z,2.30
2018-02-01T23:30:19.417Z,2.40
2018-02-01T23:32:46.913Z,2.40
2018-02-01T23:35:14.440Z,2.50
2018-02-01T23:37:41.948Z,2.50
2018-02-01T23:40:09.476Z,2.50
2018-02-01T23:42:37.753Z,2.50
2018-02-01T23:45:06.052Z,2.50
2018-02-01T23:47:33.546Z,2.50
2018-02-01T23:50:01.064Z,2.50
2018-02-01T23:52:28.601Z,2.60
2018-02-01T23:54:56.860Z,2.60
2018-02-01T23:57:24.396Z,2.50
2018-02-01T23:59:51.904Z,2.60
